createdAt,value
2024-02-02T00:00:41.890Z,100010.81
2024-02-02T00:03:08.756Z,100016.38
2024-02-02T00:05:35.534Z,100022.19
2024-02-02T00:08:02.706Z,100026.00
2024-02-02T00:10:29.512Z,100018.66
2024-02-02T00:12:56.911Z,100008.63
2024-02-02T00:15:23.841Z,100004.53
2024-02-02T00:17:50.737Z,100003.53
2024-02-02T00:20:17.425Z,99985.38
2024-02-02T00:22:43.972Z,99981.72
2024-02-02T00:25:10.542Z,99973.09
2024-02-02T00:27:37.143Z,99969.94
2024-02-02T00:30:04.223Z,99970.38
2024-02-02T00:32:30.744Z,99966.53
2024-02-02T00:34:57.341Z,99977.34
2024-02-02T00:37:23.901Z,99972.25
2024-02-02T00:39:50.412Z,99975.50
2024-02-02T00:42:16.980Z,99979.44
2024-02-02T00:44:43.528Z,99977.78
2024-02-02T00:47:10.032Z,99984.72
2024-02-02T00:49:36.603Z,99989.00
2024-02-02T00:52:03.243Z,99990.13
2024-02-02T00:54:30.221Z,99984.00
2024-02-02T00:56:56.947Z,99993.41
2024-02-02T00:59:23.626Z,99986.03
2024-02-02T01:01:50.973Z,99978.34
2024-02-02T01:04:17.446Z,99986.94
2024-02-02T01:06:44.827Z,99974.78
2024-02-02T01:09:12.222Z,99968.97
2024-02-02T01:11:38.928Z,99966.63
2024-02-02T01:14:05.500Z,99974.25
2024-02-02T01:16:34.105Z,99972.09
2024-02-02T01:19:01.232Z,99966.34
2024-02-02T01:21:29.040Z,99966.63
2024-02-02T01:23:55.825Z,99957.09
2024-02-02T01:26:22.380Z,99966.47
2024-02-02T01:28:48.903Z,99961.47
2024-02-02T01:31:15.360Z,99968.25
2024-02-02T01:33:41.996Z,99958.38
2024-02-02T01:36:08.888Z,99951.81
2024-02-02T01:38:35.511Z,99962.47
2024-02-02T01:41:01.975Z,99959.41
2024-02-02T01:43:28.750Z,99966.31
2024-02-02T01:45:55.592Z,99960.56
2024-02-02T01:48:22.676Z,99951.38
2024-02-02T01:50:49.307Z,99954.94
2024-02-02T01:53:16.097Z,99961.97
2024-02-02T01:55:42.937Z,99966.97
2024-02-02T01:58:09.554Z,99970.66
2024-02-02T02:00:37.471Z,99966.19
2024-02-02T02:03:04.294Z,99962.91
2024-02-02T02:05:31.215Z,99961.22
2024-02-02T02:07:57.869Z,99968.91
2024-02-02T02:10:25.887Z,99959.28
2024-02-02T02:12:52.527Z,99953.84
2024-02-02T02:15:19.346Z,99939.72
2024-02-02T02:17:45.992Z,99937.81
2024-02-02T02:20:13.362Z,99930.84
2024-02-02T02:22:39.909Z,99941.00
2024-02-02T02:25:06.851Z,99930.69
2024-02-02T02:27:33.690Z,99927.69
2024-02-02T02:30:01.856Z,99929.84
2024-02-02T02:32:29.002Z,99927.66
2024-02-02T02:34:55.609Z,99919.13
2024-02-02T02:37:22.191Z,99907.09
2024-02-02T02:39:48.783Z,99913.44
2024-02-02T02:42:15.468Z,99909.56
2024-02-02T02:44:42.348Z,99915.06
2024-02-02T02:47:09.021Z,99906.06
2024-02-02T02:49:35.636Z,99912.41
2024-02-02T02:52:02.319Z,99912.16
2024-02-02T02:54:29.548Z,99902.25
2024-02-02T02:56:56.232Z,99896.50
2024-02-02T02:59:22.827Z,99900.63
2024-02-02T03:01:49.368Z,99903.03
2024-02-02T03:04:15.972Z,99901.91
2024-02-02T03:06:42.563Z,99893.97
2024-02-02T03:09:12.686Z,99890.94
2024-02-02T03:11:39.481Z,99897.28
2024-02-02T03:14:06.663Z,99906.19
2024-02-02T03:16:33.208Z,99906.50
2024-02-02T03:19:00.193Z,99907.88
2024-02-02T03:21:26.977Z,99910.78
2024-02-02T03:23:53.545Z,99905.81
2024-02-02T03:26:20.047Z,99892.41
2024-02-02T03:28:46.522Z,99903.00
2024-02-02T03:31:13.058Z,99914.06
2024-02-02T03:33:39.596Z,99905.75
2024-02-02T03:36:06.416Z,99906.50
2024-02-02T03:38:32.963Z,99911.03
2024-02-02T03:40:59.455Z,99905.41
2024-02-02T03:43:26.029Z,99901.44
2024-02-02T03:45:52.545Z,99905.72
2024-02-02T03:48:19.308Z,99900.56
2024-02-02T03:50:45.903Z,99908.16
2024-02-02T03:53:12.458Z,99902.88
2024-02-02T03:55:38.942Z,99911.34
2024-02-02T03:58:05.500Z,99921.28
2024-02-02T04:00:32.132Z,99925.53
2024-02-02T04:02:58.900Z,99934.69
2024-02-02T04:05:25.632Z,99933.91
2024-02-02T04:07:52.159Z,99935.56
2024-02-02T04:10:18.783Z,99942.94
2024-02-02T04:12:45.221Z,99948.94
2024-02-02T04:15:11.729Z,99943.22
2024-02-02T04:17:38.254Z,99942.34
2024-02-02T04:20:05.614Z,99940.88
2024-02-02T04:22:32.123Z,99951.81
2024-02-02T04:24:58.572Z,99949.78
2024-02-02T04:27:25.119Z,99955.69
2024-02-02T04:29:51.997Z,99958.16
2024-02-02T04:32:18.636Z,99961.97
2024-02-02T04:34:45.248Z,99960.66
2024-02-02T04:37:11.832Z,99953.28
2024-02-02T04:39:38.312Z,99944.50
2024-02-02T04:42:06.110Z,99940.91
2024-02-02T04:44:32.636Z,99937.75
2024-02-02T04:46:59.623Z,99928.91
2024-02-02T04:49:26.210Z,99935.78
2024-02-02T04:51:52.749Z,99920.88
2024-02-02T04:54:19.305Z,99922.66
2024-02-02T04:56:45.814Z,99912.84
2024-02-02T04:59:12.395Z,99911.38
2024-02-02T05:01:38.891Z,99911.44
2024-02-02T05:04:06.194Z,99918.66
2024-02-02T05:06:32.755Z,99913.53
2024-02-02T05:09:00.416Z,99907.50
2024-02-02T05:11:26.995Z,99903.06
2024-02-02T05:13:53.473Z,99901.63
2024-02-02T05:16:19.996Z,99886.50
2024-02-02T05:18:46.595Z,99902.22
2024-02-02T05:21:13.557Z,99907.38
2024-02-02T05:23:47.030Z,99905.81
2024-02-02T05:26:16.167Z,99906.25
2024-02-02T05:28:42.736Z,99922.38
2024-02-02T05:31:09.255Z,99930.50
2024-02-02T05:33:36.040Z,99923.09
2024-02-02T05:36:02.760Z,99921.06
2024-02-02T05:38:29.397Z,99924.09
2024-02-02T05:40:55.985Z,99921.38
2024-02-02T05:43:22.479Z,99933.25
2024-02-02T05:45:48.986Z,99922.28
2024-02-02T05:48:15.586Z,99934.13
2024-02-02T05:50:42.349Z,99934.34
2024-02-02T05:53:08.937Z,99922.13
2024-02-02T05:55:35.465Z,99921.13
2024-02-02T05:58:02.054Z,99906.91
2024-02-02T06:00:29.279Z,99903.84
2024-02-02T06:02:55.889Z,99905.66
2024-02-02T06:05:22.428Z,99900.56
2024-02-02T06:07:49.029Z,99902.38
2024-02-02T06:10:15.810Z,99899.69
2024-02-02T06:12:42.433Z,99910.28
2024-02-02T06:15:09.464Z,99903.63
2024-02-02T06:17:36.688Z,99902.03
2024-02-02T06:20:04.095Z,99911.66
2024-02-02T06:22:30.835Z,99897.34
2024-02-02T06:24:57.405Z,99898.94
2024-02-02T06:27:24.911Z,99887.25
2024-02-02T06:29:51.645Z,99883.34
2024-02-02T06:32:21.866Z,99891.03
2024-02-02T06:34:51.879Z,99888.97
2024-02-02T06:37:19.698Z,99879.06
2024-02-02T06:39:48.791Z,99872.25
2024-02-02T06:42:15.529Z,99873.16
2024-02-02T06:44:42.526Z,99849.81
2024-02-02T06:47:09.025Z,99842.56
2024-02-02T06:49:35.796Z,99848.50
2024-02-02T06:52:03.112Z,99867.22
2024-02-02T06:54:30.253Z,99854.00
2024-02-02T06:56:56.924Z,99858.94
2024-02-02T06:59:23.543Z,99872.00
2024-02-02T07:01:50.808Z,99871.72
2024-02-02T07:04:17.711Z,99876.44
2024-02-02T07:06:45.094Z,99875.81
2024-02-02T07:09:20.994Z,99876.50
2024-02-02T07:12:00.677Z,99873.59
2024-02-02T07:14:49.215Z,99859.53
2024-02-02T07:17:43.732Z,99862.31
2024-02-02T07:20:33.758Z,99869.94
2024-02-02T07:23:12.693Z,99879.91
2024-02-02T07:25:41.635Z,99880.94
2024-02-02T07:28:23.074Z,99878.91
2024-02-02T07:30:54.147Z,99862.72
2024-02-02T07:33:45.225Z,99875.47
2024-02-02T07:36:18.452Z,99866.00
2024-02-02T07:38:45.267Z,99857.53
2024-02-02T07:41:13.451Z,99852.09
2024-02-02T07:43:40.496Z,99851.66
2024-02-02T07:46:11.135Z,99853.53
2024-02-02T07:48:40.118Z,99848.41
2024-02-02T07:51:08.349Z,99854.59
2024-02-02T07:53:35.117Z,99863.75
2024-02-02T07:56:02.502Z,99867.59
2024-02-02T07:58:29.195Z,99870.53
2024-02-02T08:00:55.984Z,99869.78
2024-02-02T08:03:22.589Z,99861.34
2024-02-02T08:05:49.317Z,99862.31
2024-02-02T08:08:15.917Z,99854.38
2024-02-02T08:10:47.123Z,99839.81
2024-02-02T08:13:15.241Z,99842.41
2024-02-02T08:15:41.983Z,99843.75
2024-02-02T08:18:09.586Z,99834.56
2024-02-02T08:20:36.608Z,99828.13
2024-02-02T08:23:03.407Z,99832.19
2024-02-02T08:25:30.547Z,99829.91
2024-02-02T08:27:57.789Z,99833.34
2024-02-02T08:30:27.502Z,99823.28
2024-02-02T08:32:54.317Z,99816.72
2024-02-02T08:35:26.098Z,99813.22
2024-02-02T08:37:56.885Z,99812.09
2024-02-02T08:40:29.396Z,99816.63
2024-02-02T08:42:56.119Z,99814.06
2024-02-02T08:45:37.814Z,99802.16
2024-02-02T08:48:08.642Z,99813.78
2024-02-02T08:50:35.339Z,99813.28
2024-02-02T08:53:02.277Z,99794.72
2024-02-02T08:55:48.286Z,99782.97
2024-02-02T08:58:24.924Z,99780.59
2024-02-02T09:00:52.575Z,99780.19
2024-02-02T09:03:41.894Z,99774.66
2024-02-02T09:06:13.711Z,99761.34
2024-02-02T09:08:42.729Z,99768.50
2024-02-02T09:11:22.298Z,99750.34
2024-02-02T09:13:52.280Z,99754.22
2024-02-02T09:16:20.473Z,99752.69
2024-02-02T09:18:55.492Z,99758.97
2024-02-02T09:21:29.038Z,99764.78
2024-02-02T09:23:56.236Z,99762.81
2024-02-02T09:26:49.231Z,99773.13
2024-02-02T09:29:15.788Z,99774.94
2024-02-02T09:31:42.626Z,99767.09
2024-02-02T09:34:11.747Z,99763.47
2024-02-02T09:36:40.866Z,99777.00
2024-02-02T09:39:29.629Z,99768.28
2024-02-02T09:42:45.154Z,99776.81
2024-02-02T09:45:34.465Z,99776.19
2024-02-02T09:48:23.216Z,99779.72
2024-02-02T09:50:59.902Z,99774.53
2024-02-02T09:53:40.367Z,99772.13
2024-02-02T09:56:31.717Z,99776.31
2024-02-02T09:59:08.266Z,99766.72
2024-02-02T10:01:46.786Z,99761.34
2024-02-02T10:04:24.307Z,99769.75
2024-02-02T10:06:50.951Z,99760.72
2024-02-02T10:09:38.454Z,99761.19
2024-02-02T10:12:24.423Z,99759.94
2024-02-02T10:14:56.983Z,99753.84
2024-02-02T10:17:46.875Z,99753.47
2024-02-02T10:20:16.232Z,99752.81
2024-02-02T10:22:48.887Z,99752.63
2024-02-02T10:25:57.143Z,99749.19
2024-02-02T10:28:32.077Z,99741.03
2024-02-02T10:31:15.748Z,99754.72
2024-02-02T10:34:10.198Z,99744.66
2024-02-02T10:36:48.806Z,99742.91
2024-02-02T10:39:27.225Z,99737.94
2024-02-02T10:42:20.418Z,99741.06
2024-02-02T10:45:04.275Z,99746.81
2024-02-02T10:47:44.822Z,99736.84
2024-02-02T10:50:14.298Z,99743.09
2024-02-02T10:52:58.839Z,99747.28
2024-02-02T10:55:31.071Z,99746.25
2024-02-02T10:58:09.997Z,99749.47
2024-02-02T11:00:48.832Z,99733.84
2024-02-02T11:03:36.010Z,99726.38
2024-02-02T11:06:50.919Z,99724.38
2024-02-02T11:09:49.587Z,99722.25
2024-02-02T11:12:34.815Z,99721.47
2024-02-02T11:15:12.999Z,99713.66
2024-02-02T11:18:02.024Z,99722.78
2024-02-02T11:21:11.477Z,99720.03
2024-02-02T11:23:42.295Z,99714.63
2024-02-02T11:26:45.367Z,99711.97
2024-02-02T11:29:35.935Z,99712.41
2024-02-02T11:32:22.957Z,99714.09
2024-02-02T11:35:03.049Z,99706.06
2024-02-02T11:37:36.429Z,99704.22
2024-02-02T11:40:10.015Z,99700.03
2024-02-02T11:42:38.288Z,99689.09
2024-02-02T11:45:07.517Z,99701.34
2024-02-02T11:47:43.460Z,99696.91
2024-02-02T11:50:13.612Z,99695.31
2024-02-02T11:52:43.876Z,99691.59
2024-02-02T11:55:21.636Z,99696.38
2024-02-02T11:57:54.635Z,99685.97
2024-02-02T12:00:41.683Z,99681.03
2024-02-02T12:03:33.601Z,99679.19
2024-02-02T12:06:20.735Z,99673.16
2024-02-02T12:09:13.338Z,99668.00
2024-02-02T12:11:44.386Z,99663.69
2024-02-02T12:14:22.474Z,99668.53
2024-02-02T12:16:49.345Z,99669.69
2024-02-02T12:19:16.216Z,99659.19
2024-02-02T12:21:42.980Z,99663.28
2024-02-02T12:24:09.631Z,99668.03
2024-02-02T12:26:36.444Z,99647.53
2024-02-02T12:29:03.014Z,99658.44
2024-02-02T12:31:29.827Z,99658.53
2024-02-02T12:33:56.680Z,99655.13
2024-02-02T12:36:23.332Z,99646.38
2024-02-02T12:38:52.018Z,99638.22
2024-02-02T12:41:18.582Z,99629.03
2024-02-02T12:43:48.137Z,99632.78
2024-02-02T12:46:15.133Z,99619.25
2024-02-02T12:48:42.089Z,99622.19
2024-02-02T12:51:08.847Z,99616.88
2024-02-02T12:53:36.617Z,99620.34
2024-02-02T12:56:03.654Z,99619.22
2024-02-02T12:58:30.407Z,99610.50
2024-02-02T13:00:57.229Z,99623.16
2024-02-02T13:03:24.980Z,99605.69
2024-02-02T13:05:53.966Z,99600.91
2024-02-02T13:08:31.321Z,99591.03
2024-02-02T13:11:00.310Z,99599.75
2024-02-02T13:13:27.683Z,99608.56
2024-02-02T13:15:55.946Z,99601.97
2024-02-02T13:18:26.349Z,99599.81
2024-02-02T13:20:55.880Z,99589.69
2024-02-02T13:23:26.720Z,99597.13
2024-02-02T13:25:59.509Z,99583.34
2024-02-02T13:28:27.118Z,99587.06
2024-02-02T13:30:59.354Z,99586.34
2024-02-02T13:33:33.913Z,99584.75
2024-02-02T13:36:02.893Z,99572.16
2024-02-02T13:38:32.555Z,99566.06
2024-02-02T13:41:00.781Z,99565.81
2024-02-02T13:43:29.034Z,99565.66
2024-02-02T13:46:06.407Z,99564.09
2024-02-02T13:48:38.167Z,99572.28
2024-02-02T13:51:06.202Z,99574.16
2024-02-02T13:53:32.992Z,99582.81
2024-02-02T13:56:04.934Z,99582.59
2024-02-02T13:58:38.403Z,99582.59
2024-02-02T14:01:19.416Z,99585.63
2024-02-02T14:03:47.352Z,99572.81
2024-02-02T14:06:15.134Z,99569.53
2024-02-02T14:08:46.167Z,99585.94
2024-02-02T14:11:22.493Z,99568.84
2024-02-02T14:13:49.559Z,99560.53
2024-02-02T14:16:20.737Z,99563.59
2024-02-02T14:18:58.408Z,99552.59
2024-02-02T14:21:34.726Z,99547.56
2024-02-02T14:24:10.914Z,99536.22
2024-02-02T14:26:54.237Z,99543.41
2024-02-02T14:29:25.553Z,99538.47
2024-02-02T14:31:53.668Z,99533.69
2024-02-02T14:34:20.844Z,99543.56
2024-02-02T14:36:47.589Z,99540.00
2024-02-02T14:39:34.735Z,99536.13
2024-02-02T14:42:01.471Z,99538.09
2024-02-02T14:44:32.244Z,99546.81
2024-02-02T14:47:00.576Z,99535.13
2024-02-02T14:49:27.628Z,99533.72
2024-02-02T14:51:55.265Z,99543.59
2024-02-02T14:54:22.540Z,99532.75
2024-02-02T14:56:49.248Z,99532.31
2024-02-02T14:59:22.019Z,99516.50
2024-02-02T15:01:49.197Z,99518.91
2024-02-02T15:04:16.738Z,99522.25
2024-02-02T15:06:44.780Z,99515.31
2024-02-02T15:09:15.203Z,99508.66
2024-02-02T15:11:45.976Z,99511.56
2024-02-02T15:14:13.514Z,99511.91
2024-02-02T15:16:40.273Z,99489.22
2024-02-02T15:19:06.891Z,99489.47
2024-02-02T15:21:34.168Z,99496.06
2024-02-02T15:24:01.419Z,99509.06
2024-02-02T15:26:28.284Z,99504.44
2024-02-02T15:28:55.062Z,99499.44
2024-02-02T15:31:21.772Z,99505.16
2024-02-02T15:33:48.604Z,99496.88
2024-02-02T15:36:15.766Z,99498.06
2024-02-02T15:38:59.656Z,99497.09
2024-02-02T15:41:29.026Z,99488.31
2024-02-02T15:43:56.634Z,99476.38
2024-02-02T15:46:24.738Z,99484.06
2024-02-02T15:48:52.042Z,99492.25
2024-02-02T15:51:19.915Z,99493.94
2024-02-02T15:53:47.189Z,99483.13
2024-02-02T15:56:27.015Z,99485.75
2024-02-02T15:58:53.773Z,99484.09
2024-02-02T16:01:20.541Z,99489.78
2024-02-02T16:03:47.302Z,99485.44
2024-02-02T16:06:20.774Z,99477.03
2024-02-02T16:08:47.496Z,99490.91
2024-02-02T16:11:15.664Z,99492.84
2024-02-02T16:13:45.451Z,99494.78
2024-02-02T16:16:12.701Z,99495.34
2024-02-02T16:18:39.383Z,99496.34
2024-02-02T16:21:06.102Z,99482.63
2024-02-02T16:23:32.656Z,99487.88
2024-02-02T16:25:59.208Z,99494.19
2024-02-02T16:28:25.805Z,99482.56
2024-02-02T16:30:52.476Z,99479.78
2024-02-02T16:33:21.341Z,99482.81
2024-02-02T16:35:48.145Z,99476.75
2024-02-02T16:38:16.017Z,99466.84
2024-02-02T16:40:42.956Z,99462.88
2024-02-02T16:43:09.717Z,99463.69
2024-02-02T16:45:37.089Z,99466.63
2024-02-02T16:48:04.231Z,99457.06
2024-02-02T16:50:31.089Z,99472.91
2024-02-02T16:52:57.587Z,99463.22
2024-02-02T16:55:24.315Z,99466.72
2024-02-02T16:57:52.319Z,99464.03
2024-02-02T17:00:19.271Z,99466.47
2024-02-02T17:02:45.987Z,99473.59
2024-02-02T17:05:12.501Z,99471.31
2024-02-02T17:07:39.064Z,99474.09
2024-02-02T17:10:05.880Z,99486.75
2024-02-02T17:12:32.556Z,99484.06
2024-02-02T17:14:59.080Z,99483.31
2024-02-02T17:17:25.674Z,99492.72
2024-02-02T17:19:52.307Z,99491.25
2024-02-02T17:22:18.918Z,99497.28
2024-02-02T17:24:45.484Z,99497.66
2024-02-02T17:27:12.091Z,99507.31
2024-02-02T17:29:42.544Z,99496.69
2024-02-02T17:32:09.167Z,99501.53
2024-02-02T17:34:35.837Z,99505.41
2024-02-02T17:37:02.490Z,99513.22
2024-02-02T17:39:29.947Z,99503.44
2024-02-02T17:41:56.556Z,99492.47
2024-02-02T17:44:25.748Z,99490.53
2024-02-02T17:46:54.436Z,99491.50
2024-02-02T17:49:21.144Z,99486.31
2024-02-02T17:51:47.896Z,99484.53
2024-02-02T17:54:14.578Z,99481.34
2024-02-02T17:56:41.154Z,99471.97
2024-02-02T17:59:07.734Z,99465.69
2024-02-02T18:01:37.117Z,99463.47
2024-02-02T18:04:04.174Z,99474.84
2024-02-02T18:06:30.956Z,99481.38
2024-02-02T18:08:57.667Z,99488.03
2024-02-02T18:11:24.368Z,99485.28
2024-02-02T18:13:51.065Z,99490.78
2024-02-02T18:16:17.790Z,99482.09
2024-02-02T18:18:46.710Z,99480.34
2024-02-02T18:21:13.574Z,99491.94
2024-02-02T18:23:40.127Z,99492.34
2024-02-02T18:26:07.119Z,99498.09
2024-02-02T18:28:33.766Z,99492.25
2024-02-02T18:31:00.292Z,99499.47
2024-02-02T18:33:26.928Z,99498.75
2024-02-02T18:35:53.573Z,99490.50
2024-02-02T18:38:20.281Z,99491.09
2024-02-02T18:40:50.567Z,99494.97
2024-02-02T18:43:17.994Z,99489.25
2024-02-02T18:45:45.158Z,99471.66
2024-02-02T18:48:11.887Z,99469.72
2024-02-02T18:50:38.601Z,99481.56
2024-02-02T18:53:05.270Z,99496.41
2024-02-02T18:55:31.879Z,99509.56
2024-02-02T18:57:58.436Z,99506.31
2024-02-02T19:00:25.212Z,99508.59
2024-02-02T19:02:51.758Z,99498.53
2024-02-02T19:05:18.454Z,99498.75
2024-02-02T19:07:45.124Z,99498.56
2024-02-02T19:10:11.714Z,99502.03
2024-02-02T19:12:38.292Z,99513.50
2024-02-02T19:15:07.540Z,99522.00
2024-02-02T19:17:34.361Z,99510.78
2024-02-02T19:20:00.978Z,99503.31
2024-02-02T19:22:27.541Z,99503.97
2024-02-02T19:24:54.279Z,99501.69
2024-02-02T19:27:20.913Z,99500.19
2024-02-02T19:29:47.544Z,99503.59
2024-02-02T19:32:16.246Z,99506.56
2024-02-02T19:34:43.003Z,99507.72
2024-02-02T19:37:09.686Z,99520.72
2024-02-02T19:39:36.417Z,99515.28
2024-02-02T19:42:03.252Z,99512.41
2024-02-02T19:44:29.789Z,99514.97
2024-02-02T19:46:56.419Z,99520.06
2024-02-02T19:49:23.131Z,99529.41
2024-02-02T19:51:50.118Z,99535.28
2024-02-02T19:54:16.882Z,99539.31
2024-02-02T19:56:43.652Z,99530.28
2024-02-02T19:59:10.165Z,99540.28
2024-02-02T20:01:36.832Z,99545.38
2024-02-02T20:04:03.501Z,99553.94
2024-02-02T20:06:30.347Z,99554.31
2024-02-02T20:08:57.013Z,99546.91
2024-02-02T20:11:27.083Z,99548.25
2024-02-02T20:13:53.746Z,99549.44
2024-02-02T20:16:21.286Z,99556.53
2024-02-02T20:18:49.537Z,99550.28
2024-02-02T20:21:17.650Z,99555.31
2024-02-02T20:23:46.130Z,99548.69
2024-02-02T20:26:18.493Z,99551.09
2024-02-02T20:28:53.110Z,99552.59
2024-02-02T20:31:20.084Z,99555.41
2024-02-02T20:33:48.149Z,99550.13
2024-02-02T20:36:19.316Z,99551.06
2024-02-02T20:38:45.880Z,99556.97
2024-02-02T20:41:14.768Z,99550.09
2024-02-02T20:43:41.448Z,99563.13
2024-02-02T20:46:14.171Z,99567.06
2024-02-02T20:48:40.966Z,99575.56
2024-02-02T20:51:07.811Z,99574.19
2024-02-02T20:53:34.311Z,99570.78
2024-02-02T20:56:01.103Z,99578.00
2024-02-02T20:58:27.640Z,99583.72
2024-02-02T21:00:54.300Z,99585.63
2024-02-02T21:03:24.366Z,99582.44
2024-02-02T21:05:52.194Z,99575.19
2024-02-02T21:08:18.867Z,99588.78
2024-02-02T21:10:45.498Z,99588.91
2024-02-02T21:13:12.548Z,99581.28
2024-02-02T21:15:39.289Z,99587.91
2024-02-02T21:18:15.625Z,99588.06
2024-02-02T21:20:50.277Z,99578.22
2024-02-02T21:23:18.934Z,99578.50
2024-02-02T21:25:46.591Z,99588.03
2024-02-02T21:28:14.115Z,99594.31
2024-02-02T21:30:41.848Z,99596.38
2024-02-02T21:33:08.532Z,99593.09
2024-02-02T21:35:35.194Z,99602.44
2024-02-02T21:38:01.776Z,99594.28
2024-02-02T21:40:28.669Z,99597.44
2024-02-02T21:42:55.720Z,99603.69
2024-02-02T21:45:22.469Z,99594.22
2024-02-02T21:47:49.297Z,99603.69
2024-02-02T21:50:16.154Z,99606.91
2024-02-02T21:52:43.999Z,99599.41
2024-02-02T21:55:10.548Z,99599.53
2024-02-02T21:57:37.210Z,99599.03
2024-02-02T22:00:05.649Z,99601.03
2024-02-02T22:02:32.326Z,99609.25
2024-02-02T22:04:58.928Z,99605.97
2024-02-02T22:07:25.820Z,99612.66
2024-02-02T22:09:52.573Z,99608.16
2024-02-02T22:12:19.155Z,99610.50
2024-02-02T22:14:45.794Z,99612.75
2024-02-02T22:17:12.420Z,99613.84
2024-02-02T22:19:39.711Z,99606.53
2024-02-02T22:22:07.157Z,99613.09
2024-02-02T22:24:40.513Z,99615.25
2024-02-02T22:27:07.975Z,99618.25
2024-02-02T22:29:35.144Z,99617.69
2024-02-02T22:32:01.878Z,99612.09
2024-02-02T22:34:28.531Z,99617.94
2024-02-02T22:36:55.666Z,99612.81
2024-02-02T22:39:23.299Z,99607.69
2024-02-02T22:41:49.930Z,99607.78
2024-02-02T22:44:17.131Z,99601.69
2024-02-02T22:46:43.876Z,99604.19
2024-02-02T22:49:10.616Z,99595.56
2024-02-02T22:51:44.485Z,99597.22
2024-02-02T22:54:11.132Z,99601.94
2024-02-02T22:56:37.690Z,99595.13
2024-02-02T22:59:04.220Z,99598.59
2024-02-02T23:01:30.845Z,99596.44
2024-02-02T23:03:57.604Z,99604.78
2024-02-02T23:06:24.389Z,99605.41
2024-02-02T23:08:50.996Z,99607.00
2024-02-02T23:11:17.938Z,99608.72
2024-02-02T23:13:47.505Z,99602.19
2024-02-02T23:16:14.252Z,99609.31
2024-02-02T23:18:41.026Z,99605.38
2024-02-02T23:21:08.743Z,99598.81
2024-02-02T23:23:35.348Z,99600.31
2024-02-02T23:26:02.480Z,99599.53
2024-02-02T23:28:29.246Z,99597.47
2024-02-02T23:30:56.246Z,99587.41
2024-02-02T23:33:22.875Z,99584.09
2024-02-02T23:35:49.429Z,99581.44
2024-02-02T23:38:16.103Z,99586.94
2024-02-02T23:40:42.585Z,99587.97
2024-02-02T23:43:09.067Z,99595.16
2024-02-02T23:45:35.605Z,99592.41
2024-02-02T23:48:02.236Z,99590.69
2024-02-02T23:50:28.770Z,99584.44
2024-02-02T23:52:55.372Z,99581.84
2024-02-02T23:55:21.950Z,99574.84
2024-02-02T23:57:50.135Z,99574.94
